sensor_id;sensor_type;location;lat;lon;timestamp;temperature;humidity
36856;DHT22;22788;51.434;6.786;2023-07-24T00:01:35;20.20;99.90
36856;DHT22;22788;51.434;6.786;2023-07-24T00:04:01;20.20;99.90
36856;DHT22;22788;51.434;6.786;2023-07-24T00:06:26;20.20;99.90
36856;DHT22;22788;51.434;6.786;2023-07-24T00:08:52;20.10;99.90
36856;DHT22;22788;51.434;6.786;2023-07-24T00:11:18;20.10;99.90
36856;DHT22;22788;51.434;6.786;2023-07-24T00:13:44;20.10;99.90
36856;DHT22;22788;51.434;6.786;2023-07-24T00:16:11;20.10;99.90
36856;DHT22;22788;51.434;6.786;2023-07-24T00:18:37;20.10;99.90
36856;DHT22;22788;51.434;6.786;2023-07-24T00:21:03;20.10;99.90
36856;DHT22;22788;51.434;6.786;2023-07-24T00:23:28;20.10;99.90
36856;DHT22;22788;51.434;6.786;2023-07-24T00:25:54;20.10;99.90
36856;DHT22;22788;51.434;6.786;2023-07-24T00:28:19;20.10;99.90
36856;DHT22;22788;51.434;6.786;2023-07-24T00:30:45;20.10;99.90
36856;DHT22;22788;51.434;6.786;2023-07-24T00:33:12;20.10;99.90
36856;DHT22;22788;51.434;6.786;2023-07-24T00:35:38;20.10;99.90
36856;DHT22;22788;51.434;6.786;2023-07-24T00:38:03;20.10;99.90
36856;DHT22;22788;51.434;6.786;2023-07-24T00:40:29;20.10;99.90
36856;DHT22;22788;51.434;6.786;2023-07-24T00:42:54;20.10;99.90
36856;DHT22;22788;51.434;6.786;2023-07-24T00:45:21;20.10;99.90
36856;DHT22;22788;51.434;6.786;2023-07-24T00:47:47;20.10;99.90
36856;DHT22;22788;51.434;6.786;2023-07-24T00:50:14;20.10;99.90
36856;DHT22;22788;51.434;6.786;2023-07-24T00:52:40;20.10;99.90
36856;DHT22;22788;51.434;6.786;2023-07-24T00:55:07;20.10;99.90
36856;DHT22;22788;51.434;6.786;2023-07-24T00:57:33;20.10;99.90
36856;DHT22;22788;51.434;6.786;2023-07-24T00:59:59;20.10;99.90
36856;DHT22;22788;51.434;6.786;2023-07-24T01:02:25;20.10;99.90
36856;DHT22;22788;51.434;6.786;2023-07-24T01:04:51;20.10;99.90
36856;DHT22;22788;51.434;6.786;2023-07-24T01:07:20;20.10;99.90
36856;DHT22;22788;51.434;6.786;2023-07-24T01:09:45;20.00;99.90
36856;DHT22;22788;51.434;6.786;2023-07-24T01:12:21;20.00;99.90
36856;DHT22;22788;51.434;6.786;2023-07-24T01:14:54;20.00;99.90
36856;DHT22;22788;51.434;6.786;2023-07-24T01:17:24;20.00;99.90
36856;DHT22;22788;51.434;6.786;2023-07-24T01:19:53;20.00;99.90
36856;DHT22;22788;51.434;6.786;2023-07-24T01:22:27;20.00;99.90
36856;DHT22;22788;51.434;6.786;2023-07-24T01:25:09;20.00;99.90
36856;DHT22;22788;51.434;6.786;2023-07-24T01:27:41;20.00;99.90
36856;DHT22;22788;51.434;6.786;2023-07-24T01:30:08;19.90;99.90
36856;DHT22;22788;51.434;6.786;2023-07-24T01:32:33;19.90;99.90
36856;DHT22;22788;51.434;6.786;2023-07-24T01:34:59;19.90;99.90
36856;DHT22;22788;51.434;6.786;2023-07-24T01:37:25;19.90;99.90
36856;DHT22;22788;51.434;6.786;2023-07-24T01:39:53;19.90;99.90
36856;DHT22;22788;51.434;6.786;2023-07-24T01:42:19;19.90;99.90
36856;DHT22;22788;51.434;6.786;2023-07-24T01:44:51;19.80;99.90
36856;DHT22;22788;51.434;6.786;2023-07-24T01:47:16;19.90;99.90
36856;DHT22;22788;51.434;6.786;2023-07-24T01:49:42;19.90;99.90
36856;DHT22;22788;51.434;6.786;2023-07-24T01:52:08;19.90;99.90
36856;DHT22;22788;51.434;6.786;2023-07-24T01:54:33;19.90;99.90
36856;DHT22;22788;51.434;6.786;2023-07-24T01:56:59;19.80;99.90
36856;DHT22;22788;51.434;6.786;2023-07-24T01:59:24;19.90;99.90
36856;DHT22;22788;51.434;6.786;2023-07-24T02:01:51;19.80;99.90
36856;DHT22;22788;51.434;6.786;2023-07-24T02:04:17;19.90;99.90
36856;DHT22;22788;51.434;6.786;2023-07-24T02:06:42;19.80;99.90
36856;DHT22;22788;51.434;6.786;2023-07-24T02:09:09;19.80;99.90
36856;DHT22;22788;51.434;6.786;2023-07-24T02:11:34;19.80;99.90
36856;DHT22;22788;51.434;6.786;2023-07-24T02:14:00;19.80;99.90
36856;DHT22;22788;51.434;6.786;2023-07-24T02:16:26;19.80;99.90
36856;DHT22;22788;51.434;6.786;2023-07-24T02:18:52;19.80;99.90
36856;DHT22;22788;51.434;6.786;2023-07-24T02:21:18;19.80;99.90
36856;DHT22;22788;51.434;6.786;2023-07-24T02:23:44;19.80;99.90
36856;DHT22;22788;51.434;6.786;2023-07-24T02:26:09;19.80;99.90
36856;DHT22;22788;51.434;6.786;2023-07-24T02:28:35;19.80;99.90
36856;DHT22;22788;51.434;6.786;2023-07-24T02:31:00;19.90;99.90
36856;DHT22;22788;51.434;6.786;2023-07-24T02:33:26;19.80;99.90
36856;DHT22;22788;51.434;6.786;2023-07-24T02:35:53;19.80;99.90
36856;DHT22;22788;51.434;6.786;2023-07-24T02:38:19;19.80;99.90
36856;DHT22;22788;51.434;6.786;2023-07-24T02:40:45;19.80;99.90
36856;DHT22;22788;51.434;6.786;2023-07-24T02:43:11;19.80;99.90
36856;DHT22;22788;51.434;6.786;2023-07-24T02:45:37;19.80;99.90
36856;DHT22;22788;51.434;6.786;2023-07-24T02:48:03;19.80;99.90
36856;DHT22;22788;51.434;6.786;2023-07-24T02:50:29;19.80;99.90
36856;DHT22;22788;51.434;6.786;2023-07-24T02:52:56;19.80;99.90
36856;DHT22;22788;51.434;6.786;2023-07-24T02:55:22;19.90;99.90
36856;DHT22;22788;51.434;6.786;2023-07-24T02:57:47;19.80;99.90
36856;DHT22;22788;51.434;6.786;2023-07-24T03:00:13;19.80;99.90
36856;DHT22;22788;51.434;6.786;2023-07-24T03:02:39;19.70;99.90
36856;DHT22;22788;51.434;6.786;2023-07-24T03:05:05;19.70;99.90
36856;DHT22;22788;51.434;6.786;2023-07-24T03:07:31;19.80;99.90
36856;DHT22;22788;51.434;6.786;2023-07-24T03:09:58;19.80;99.90
36856;DHT22;22788;51.434;6.786;2023-07-24T03:12:24;19.80;99.90
36856;DHT22;22788;51.434;6.786;2023-07-24T03:14:50;19.80;99.90
36856;DHT22;22788;51.434;6.786;2023-07-24T03:17:16;19.80;99.90
36856;DHT22;22788;51.434;6.786;2023-07-24T03:19:41;19.80;99.90
36856;DHT22;22788;51.434;6.786;2023-07-24T03:22:07;19.80;99.90
36856;DHT22;22788;51.434;6.786;2023-07-24T03:24:33;19.80;99.90
36856;DHT22;22788;51.434;6.786;2023-07-24T03:27:00;19.80;99.90
36856;DHT22;22788;51.434;6.786;2023-07-24T03:29:26;19.70;99.90
36856;DHT22;22788;51.434;6.786;2023-07-24T03:31:52;19.70;99.90
36856;DHT22;22788;51.434;6.786;2023-07-24T03:34:17;19.70;99.90
36856;DHT22;22788;51.434;6.786;2023-07-24T03:36:43;19.70;99.90
36856;DHT22;22788;51.434;6.786;2023-07-24T03:39:09;19.80;99.90
36856;DHT22;22788;51.434;6.786;2023-07-24T03:41:35;19.70;99.90
36856;DHT22;22788;51.434;6.786;2023-07-24T03:44:02;19.70;99.90
36856;DHT22;22788;51.434;6.786;2023-07-24T03:46:27;19.70;99.90
36856;DHT22;22788;51.434;6.786;2023-07-24T03:48:53;19.70;99.90
36856;DHT22;22788;51.434;6.786;2023-07-24T03:51:19;19.70;99.90
36856;DHT22;22788;51.434;6.786;2023-07-24T03:53:44;19.70;99.90
36856;DHT22;22788;51.434;6.786;2023-07-24T03:56:10;19.70;99.90
36856;DHT22;22788;51.434;6.786;2023-07-24T03:58:37;19.70;99.90
36856;DHT22;22788;51.434;6.786;2023-07-24T04:01:04;19.70;99.90
36856;DHT22;22788;51.434;6.786;2023-07-24T04:03:30;19.70;99.90
36856;DHT22;22788;51.434;6.786;2023-07-24T04:05:55;19.70;99.90
36856;DHT22;22788;51.434;6.786;2023-07-24T04:08:21;19.40;99.90
36856;DHT22;22788;51.434;6.786;2023-07-24T04:10:47;19.70;99.90
36856;DHT22;22788;51.434;6.786;2023-07-24T04:13:12;19.70;99.90
36856;DHT22;22788;51.434;6.786;2023-07-24T04:15:38;19.60;99.90
36856;DHT22;22788;51.434;6.786;2023-07-24T04:18:05;19.70;99.90
36856;DHT22;22788;51.434;6.786;2023-07-24T04:20:30;19.70;99.90
36856;DHT22;22788;51.434;6.786;2023-07-24T04:22:56;19.60;99.90
36856;DHT22;22788;51.434;6.786;2023-07-24T04:25:22;19.70;99.90
36856;DHT22;22788;51.434;6.786;2023-07-24T04:27:47;19.60;99.90
36856;DHT22;22788;51.434;6.786;2023-07-24T04:30:13;19.70;99.90
36856;DHT22;22788;51.434;6.786;2023-07-24T04:32:39;19.70;99.90
36856;DHT22;22788;51.434;6.786;2023-07-24T04:35:07;19.70;99.90
36856;DHT22;22788;51.434;6.786;2023-07-24T04:37:33;19.70;99.90
36856;DHT22;22788;51.434;6.786;2023-07-24T04:39:58;19.60;99.90
36856;DHT22;22788;51.434;6.786;2023-07-24T04:42:24;19.60;99.90
36856;DHT22;22788;51.434;6.786;2023-07-24T04:44:49;19.60;99.90
36856;DHT22;22788;51.434;6.786;2023-07-24T04:47:15;19.60;99.90
36856;DHT22;22788;51.434;6.786;2023-07-24T04:49:41;19.60;99.90
36856;DHT22;22788;51.434;6.786;2023-07-24T04:52:08;19.60;99.90
36856;DHT22;22788;51.434;6.786;2023-07-24T04:54:33;19.60;99.90
36856;DHT22;22788;51.434;6.786;2023-07-24T04:56:59;19.60;99.90
36856;DHT22;22788;51.434;6.786;2023-07-24T04:59:24;19.60;99.90
36856;DHT22;22788;51.434;6.786;2023-07-24T05:01:50;19.60;99.90
36856;DHT22;22788;51.434;6.786;2023-07-24T05:04:16;19.60;99.90
36856;DHT22;22788;51.434;6.786;2023-07-24T05:06:42;19.60;99.90
36856;DHT22;22788;51.434;6.786;2023-07-24T05:09:09;19.70;99.90
36856;DHT22;22788;51.434;6.786;2023-07-24T05:11:34;19.70;99.90
36856;DHT22;22788;51.434;6.786;2023-07-24T05:14:00;19.60;99.90
36856;DHT22;22788;51.434;6.786;2023-07-24T05:16:25;19.60;99.90
36856;DHT22;22788;51.434;6.786;2023-07-24T05:18:51;19.60;99.90
36856;DHT22;22788;51.434;6.786;2023-07-24T05:21:17;19.70;99.90
36856;DHT22;22788;51.434;6.786;2023-07-24T05:23:42;19.60;99.90
36856;DHT22;22788;51.434;6.786;2023-07-24T05:26:09;19.60;99.90
36856;DHT22;22788;51.434;6.786;2023-07-24T05:28:35;19.60;99.90
36856;DHT22;22788;51.434;6.786;2023-07-24T05:31:01;19.60;99.90
36856;DHT22;22788;51.434;6.786;2023-07-24T05:33:26;19.70;99.90
36856;DHT22;22788;51.434;6.786;2023-07-24T05:35:57;19.50;99.90
36856;DHT22;22788;51.434;6.786;2023-07-24T05:38:23;19.60;99.90
36856;DHT22;22788;51.434;6.786;2023-07-24T05:40:54;19.60;99.90
36856;DHT22;22788;51.434;6.786;2023-07-24T05:43:21;19.60;99.90
36856;DHT22;22788;51.434;6.786;2023-07-24T05:45:47;19.60;99.90
36856;DHT22;22788;51.434;6.786;2023-07-24T05:48:12;19.60;99.90
36856;DHT22;22788;51.434;6.786;2023-07-24T05:50:38;19.60;99.90
36856;DHT22;22788;51.434;6.786;2023-07-24T05:53:03;19.60;99.90
36856;DHT22;22788;51.434;6.786;2023-07-24T05:55:29;19.60;99.90
36856;DHT22;22788;51.434;6.786;2023-07-24T05:57:55;19.60;99.90
36856;DHT22;22788;51.434;6.786;2023-07-24T06:00:22;19.60;99.90
36856;DHT22;22788;51.434;6.786;2023-07-24T06:02:47;19.60;99.90
36856;DHT22;22788;51.434;6.786;2023-07-24T06:05:13;19.70;99.90
36856;DHT22;22788;51.434;6.786;2023-07-24T06:07:39;19.70;99.90
36856;DHT22;22788;51.434;6.786;2023-07-24T06:10:05;19.60;99.90
36856;DHT22;22788;51.434;6.786;2023-07-24T06:12:31;19.60;99.90
36856;DHT22;22788;51.434;6.786;2023-07-24T06:14:56;19.60;99.90
36856;DHT22;22788;51.434;6.786;2023-07-24T06:17:23;19.60;99.90
36856;DHT22;22788;51.434;6.786;2023-07-24T06:19:49;19.60;99.90
36856;DHT22;22788;51.434;6.786;2023-07-24T06:22:14;19.60;99.90
36856;DHT22;22788;51.434;6.786;2023-07-24T06:24:40;19.70;99.90
36856;DHT22;22788;51.434;6.786;2023-07-24T06:27:06;19.60;99.90
36856;DHT22;22788;51.434;6.786;2023-07-24T06:29:32;19.60;99.90
36856;DHT22;22788;51.434;6.786;2023-07-24T06:31:57;19.60;99.90
36856;DHT22;22788;51.434;6.786;2023-07-24T06:34:24;19.60;99.90
36856;DHT22;22788;51.434;6.786;2023-07-24T06:36:50;19.60;99.90
36856;DHT22;22788;51.434;6.786;2023-07-24T06:39:15;19.60;99.90
36856;DHT22;22788;51.434;6.786;2023-07-24T06:41:41;19.60;99.90
36856;DHT22;22788;51.434;6.786;2023-07-24T06:44:07;19.60;99.90
36856;DHT22;22788;51.434;6.786;2023-07-24T06:46:32;19.60;99.90
36856;DHT22;22788;51.434;6.786;2023-07-24T06:48:58;19.60;99.90
36856;DHT22;22788;51.434;6.786;2023-07-24T06:51:25;19.60;99.90
36856;DHT22;22788;51.434;6.786;2023-07-24T06:53:51;19.60;99.90
36856;DHT22;22788;51.434;6.786;2023-07-24T06:56:16;19.70;99.90
36856;DHT22;22788;51.434;6.786;2023-07-24T06:58:42;19.60;99.90
36856;DHT22;22788;51.434;6.786;2023-07-24T07:01:08;19.60;99.90
36856;DHT22;22788;51.434;6.786;2023-07-24T07:03:33;19.60;99.90
36856;DHT22;22788;51.434;6.786;2023-07-24T07:05:59;19.60;99.90
36856;DHT22;22788;51.434;6.786;2023-07-24T07:08:26;19.60;99.90
36856;DHT22;22788;51.434;6.786;2023-07-24T07:10:55;19.60;99.90
36856;DHT22;22788;51.434;6.786;2023-07-24T07:13:21;19.60;99.90
36856;DHT22;22788;51.434;6.786;2023-07-24T07:15:46;19.60;99.90
36856;DHT22;22788;51.434;6.786;2023-07-24T07:18:12;19.60;99.90
36856;DHT22;22788;51.434;6.786;2023-07-24T07:20:38;19.60;99.90
36856;DHT22;22788;51.434;6.786;2023-07-24T07:23:03;19.60;99.90
36856;DHT22;22788;51.434;6.786;2023-07-24T07:25:30;19.60;99.90
36856;DHT22;22788;51.434;6.786;2023-07-24T07:27:56;19.50;99.90
36856;DHT22;22788;51.434;6.786;2023-07-24T07:30:21;19.60;99.90
36856;DHT22;22788;51.434;6.786;2023-07-24T07:32:47;19.60;99.90
36856;DHT22;22788;51.434;6.786;2023-07-24T07:35:13;19.60;99.90
36856;DHT22;22788;51.434;6.786;2023-07-24T07:37:38;19.60;99.90
36856;DHT22;22788;51.434;6.786;2023-07-24T07:40:05;19.60;99.90
36856;DHT22;22788;51.434;6.786;2023-07-24T07:42:32;19.60;99.90
36856;DHT22;22788;51.434;6.786;2023-07-24T07:44:58;19.60;99.90
36856;DHT22;22788;51.434;6.786;2023-07-24T07:47:23;19.60;99.90
36856;DHT22;22788;51.434;6.786;2023-07-24T07:49:49;19.60;99.90
36856;DHT22;22788;51.434;6.786;2023-07-24T07:52:15;19.60;99.90
36856;DHT22;22788;51.434;6.786;2023-07-24T07:54:40;19.60;99.90
36856;DHT22;22788;51.434;6.786;2023-07-24T07:57:06;19.60;99.90
36856;DHT22;22788;51.434;6.786;2023-07-24T07:59:33;19.60;99.90
36856;DHT22;22788;51.434;6.786;2023-07-24T08:01:59;19.70;99.90
36856;DHT22;22788;51.434;6.786;2023-07-24T08:04:24;19.70;99.90
36856;DHT22;22788;51.434;6.786;2023-07-24T08:06:50;19.60;99.90
36856;DHT22;22788;51.434;6.786;2023-07-24T08:09:18;19.70;99.90
36856;DHT22;22788;51.434;6.786;2023-07-24T08:11:45;19.70;99.90
36856;DHT22;22788;51.434;6.786;2023-07-24T08:14:11;19.70;99.90
36856;DHT22;22788;51.434;6.786;2023-07-24T08:16:38;19.70;99.90
36856;DHT22;22788;51.434;6.786;2023-07-24T08:19:03;19.70;99.90
36856;DHT22;22788;51.434;6.786;2023-07-24T08:21:29;19.70;99.90
36856;DHT22;22788;51.434;6.786;2023-07-24T08:23:55;19.70;99.90
36856;DHT22;22788;51.434;6.786;2023-07-24T08:26:20;19.70;99.90
36856;DHT22;22788;51.434;6.786;2023-07-24T08:28:46;19.70;99.90
36856;DHT22;22788;51.434;6.786;2023-07-24T08:31:11;19.70;99.90
36856;DHT22;22788;51.434;6.786;2023-07-24T08:33:38;19.70;99.90
36856;DHT22;22788;51.434;6.786;2023-07-24T08:36:05;19.70;99.90
36856;DHT22;22788;51.434;6.786;2023-07-24T08:38:32;19.70;99.90
36856;DHT22;22788;51.434;6.786;2023-07-24T08:41:05;19.70;99.90
36856;DHT22;22788;51.434;6.786;2023-07-24T08:43:31;19.70;99.90
36856;DHT22;22788;51.434;6.786;2023-07-24T08:45:58;19.80;99.90
36856;DHT22;22788;51.434;6.786;2023-07-24T08:48:24;19.80;99.90
36856;DHT22;22788;51.434;6.786;2023-07-24T08:50:53;19.80;99.90
36856;DHT22;22788;51.434;6.786;2023-07-24T08:53:20;19.80;99.90
36856;DHT22;22788;51.434;6.786;2023-07-24T08:55:47;19.80;99.90
36856;DHT22;22788;51.434;6.786;2023-07-24T08:58:13;19.90;99.90
36856;DHT22;22788;51.434;6.786;2023-07-24T09:00:39;19.90;99.90
36856;DHT22;22788;51.434;6.786;2023-07-24T09:03:05;19.90;99.90
36856;DHT22;22788;51.434;6.786;2023-07-24T09:05:31;19.90;99.90
36856;DHT22;22788;51.434;6.786;2023-07-24T09:07:58;19.90;99.90
36856;DHT22;22788;51.434;6.786;2023-07-24T09:10:24;19.90;99.90
36856;DHT22;22788;51.434;6.786;2023-07-24T09:12:50;20.00;99.90
36856;DHT22;22788;51.434;6.786;2023-07-24T09:15:15;20.10;99.90
36856;DHT22;22788;51.434;6.786;2023-07-24T09:17:48;20.10;99.90
36856;DHT22;22788;51.434;6.786;2023-07-24T09:20:14;20.10;99.90
36856;DHT22;22788;51.434;6.786;2023-07-24T09:22:48;20.10;99.90
36856;DHT22;22788;51.434;6.786;2023-07-24T09:25:15;20.10;99.90
36856;DHT22;22788;51.434;6.786;2023-07-24T09:27:41;20.00;99.90
36856;DHT22;22788;51.434;6.786;2023-07-24T09:30:12;20.00;99.90
36856;DHT22;22788;51.434;6.786;2023-07-24T09:32:38;20.10;99.90
36856;DHT22;22788;51.434;6.786;2023-07-24T09:35:04;20.00;99.90
36856;DHT22;22788;51.434;6.786;2023-07-24T09:37:32;20.00;99.90
36856;DHT22;22788;51.434;6.786;2023-07-24T09:39:58;20.00;99.90
36856;DHT22;22788;51.434;6.786;2023-07-24T09:42:33;20.00;99.90
36856;DHT22;22788;51.434;6.786;2023-07-24T09:44:59;19.90;99.90
36856;DHT22;22788;51.434;6.786;2023-07-24T09:47:24;19.90;99.90
36856;DHT22;22788;51.434;6.786;2023-07-24T09:49:51;19.90;99.90
36856;DHT22;22788;51.434;6.786;2023-07-24T09:52:18;20.00;99.90
36856;DHT22;22788;51.434;6.786;2023-07-24T09:54:52;20.00;99.90
36856;DHT22;22788;51.434;6.786;2023-07-24T09:57:20;20.00;99.90
36856;DHT22;22788;51.434;6.786;2023-07-24T09:59:48;20.00;99.90
36856;DHT22;22788;51.434;6.786;2023-07-24T10:02:14;20.00;99.90
36856;DHT22;22788;51.434;6.786;2023-07-24T10:04:41;20.00;99.90
36856;DHT22;22788;51.434;6.786;2023-07-24T10:07:07;20.00;99.90
36856;DHT22;22788;51.434;6.786;2023-07-24T10:09:33;20.10;99.90
36856;DHT22;22788;51.434;6.786;2023-07-24T10:12:00;20.20;99.90
36856;DHT22;22788;51.434;6.786;2023-07-24T10:14:26;20.10;99.90
36856;DHT22;22788;51.434;6.786;2023-07-24T10:16:54;20.10;99.90
36856;DHT22;22788;51.434;6.786;2023-07-24T10:19:20;20.30;99.90
36856;DHT22;22788;51.434;6.786;2023-07-24T10:21:47;20.30;99.90
36856;DHT22;22788;51.434;6.786;2023-07-24T10:24:12;20.30;99.90
36856;DHT22;22788;51.434;6.786;2023-07-24T10:26:38;20.30;99.90
36856;DHT22;22788;51.434;6.786;2023-07-24T10:29:04;20.40;99.90
36856;DHT22;22788;51.434;6.786;2023-07-24T10:31:29;20.30;99.90
36856;DHT22;22788;51.434;6.786;2023-07-24T10:34:03;20.30;99.90
36856;DHT22;22788;51.434;6.786;2023-07-24T10:36:33;20.30;99.90
36856;DHT22;22788;51.434;6.786;2023-07-24T10:38:59;20.30;99.90
36856;DHT22;22788;51.434;6.786;2023-07-24T10:41:34;20.30;99.90
36856;DHT22;22788;51.434;6.786;2023-07-24T10:44:00;20.20;99.90
36856;DHT22;22788;51.434;6.786;2023-07-24T10:46:35;20.20;99.90
36856;DHT22;22788;51.434;6.786;2023-07-24T10:49:02;20.10;99.90
36856;DHT22;22788;51.434;6.786;2023-07-24T10:51:29;20.10;99.90
36856;DHT22;22788;51.434;6.786;2023-07-24T10:53:55;20.10;99.90
36856;DHT22;22788;51.434;6.786;2023-07-24T10:56:20;20.10;99.90
36856;DHT22;22788;51.434;6.786;2023-07-24T10:58:46;20.10;99.90
36856;DHT22;22788;51.434;6.786;2023-07-24T11:01:12;20.10;99.90
36856;DHT22;22788;51.434;6.786;2023-07-24T11:03:38;20.10;99.90
36856;DHT22;22788;51.434;6.786;2023-07-24T11:06:12;20.10;99.90
36856;DHT22;22788;51.434;6.786;2023-07-24T11:08:38;20.10;99.90
36856;DHT22;22788;51.434;6.786;2023-07-24T11:11:03;20.10;99.90
36856;DHT22;22788;51.434;6.786;2023-07-24T11:13:29;20.00;99.90
36856;DHT22;22788;51.434;6.786;2023-07-24T11:15:55;20.00;99.90
36856;DHT22;22788;51.434;6.786;2023-07-24T11:18:21;20.00;99.90
36856;DHT22;22788;51.434;6.786;2023-07-24T11:20:49;19.90;99.90
36856;DHT22;22788;51.434;6.786;2023-07-24T11:23:17;19.90;99.90
36856;DHT22;22788;51.434;6.786;2023-07-24T11:25:43;19.90;99.90
36856;DHT22;22788;51.434;6.786;2023-07-24T11:28:10;20.00;99.90
36856;DHT22;22788;51.434;6.786;2023-07-24T11:30:36;19.90;99.90
36856;DHT22;22788;51.434;6.786;2023-07-24T11:33:03;19.90;99.90
36856;DHT22;22788;51.434;6.786;2023-07-24T11:35:29;19.90;99.90
36856;DHT22;22788;51.434;6.786;2023-07-24T11:37:55;19.90;99.90
36856;DHT22;22788;51.434;6.786;2023-07-24T11:40:31;19.90;99.90
36856;DHT22;22788;51.434;6.786;2023-07-24T11:42:57;19.90;99.90
36856;DHT22;22788;51.434;6.786;2023-07-24T11:45:22;19.80;99.90
36856;DHT22;22788;51.434;6.786;2023-07-24T11:47:49;19.80;99.90
36856;DHT22;22788;51.434;6.786;2023-07-24T11:50:16;19.80;99.90
36856;DHT22;22788;51.434;6.786;2023-07-24T11:52:44;19.80;99.90
36856;DHT22;22788;51.434;6.786;2023-07-24T11:55:11;19.80;99.90
36856;DHT22;22788;51.434;6.786;2023-07-24T11:57:38;19.90;99.90
36856;DHT22;22788;51.434;6.786;2023-07-24T12:00:05;19.90;99.90
36856;DHT22;22788;51.434;6.786;2023-07-24T12:02:32;19.90;99.90
36856;DHT22;22788;51.434;6.786;2023-07-24T12:04:58;19.90;99.90
36856;DHT22;22788;51.434;6.786;2023-07-24T12:07:29;19.90;99.90
36856;DHT22;22788;51.434;6.786;2023-07-24T12:09:55;20.00;99.90
36856;DHT22;22788;51.434;6.786;2023-07-24T12:12:21;19.90;99.90
36856;DHT22;22788;51.434;6.786;2023-07-24T12:14:48;20.00;99.90
36856;DHT22;22788;51.434;6.786;2023-07-24T12:17:17;20.00;99.90
36856;DHT22;22788;51.434;6.786;2023-07-24T12:19:43;20.00;99.90
36856;DHT22;22788;51.434;6.786;2023-07-24T12:22:09;20.10;99.90
36856;DHT22;22788;51.434;6.786;2023-07-24T12:24:34;20.10;99.90
36856;DHT22;22788;51.434;6.786;2023-07-24T12:27:00;20.10;99.90
36856;DHT22;22788;51.434;6.786;2023-07-24T12:29:26;20.00;99.90
36856;DHT22;22788;51.434;6.786;2023-07-24T12:31:53;20.10;99.90
36856;DHT22;22788;51.434;6.786;2023-07-24T12:34:18;20.10;99.90
36856;DHT22;22788;51.434;6.786;2023-07-24T12:36:44;20.10;99.90
36856;DHT22;22788;51.434;6.786;2023-07-24T12:39:09;20.10;99.90
36856;DHT22;22788;51.434;6.786;2023-07-24T12:41:35;20.00;99.90
36856;DHT22;22788;51.434;6.786;2023-07-24T12:44:01;20.00;99.90
36856;DHT22;22788;51.434;6.786;2023-07-24T12:46:26;19.90;99.90
36856;DHT22;22788;51.434;6.786;2023-07-24T12:48:53;19.90;99.90
36856;DHT22;22788;51.434;6.786;2023-07-24T12:51:19;19.90;99.90
36856;DHT22;22788;51.434;6.786;2023-07-24T12:53:44;20.00;99.90
36856;DHT22;22788;51.434;6.786;2023-07-24T12:56:10;20.00;99.90
36856;DHT22;22788;51.434;6.786;2023-07-24T12:58:35;20.10;99.90
36856;DHT22;22788;51.434;6.786;2023-07-24T13:01:01;20.10;99.90
36856;DHT22;22788;51.434;6.786;2023-07-24T13:03:27;20.10;99.90
36856;DHT22;22788;51.434;6.786;2023-07-24T13:05:54;20.20;99.90
36856;DHT22;22788;51.434;6.786;2023-07-24T13:08:19;20.10;99.90
36856;DHT22;22788;51.434;6.786;2023-07-24T13:10:45;20.10;99.90
36856;DHT22;22788;51.434;6.786;2023-07-24T13:13:10;20.10;99.90
36856;DHT22;22788;51.434;6.786;2023-07-24T13:15:36;20.10;99.90
36856;DHT22;22788;51.434;6.786;2023-07-24T13:18:02;20.10;99.90
36856;DHT22;22788;51.434;6.786;2023-07-24T13:20:27;20.10;99.90
36856;DHT22;22788;51.434;6.786;2023-07-24T13:22:54;20.20;99.90
36856;DHT22;22788;51.434;6.786;2023-07-24T13:25:20;20.30;99.90
36856;DHT22;22788;51.434;6.786;2023-07-24T13:27:45;20.30;99.90
36856;DHT22;22788;51.434;6.786;2023-07-24T13:30:11;20.30;99.90
36856;DHT22;22788;51.434;6.786;2023-07-24T13:32:37;20.40;99.90
36856;DHT22;22788;51.434;6.786;2023-07-24T13:35:03;20.40;99.90
36856;DHT22;22788;51.434;6.786;2023-07-24T13:37:28;20.50;99.90
36856;DHT22;22788;51.434;6.786;2023-07-24T13:39:55;20.50;99.90
36856;DHT22;22788;51.434;6.786;2023-07-24T13:42:21;20.60;99.90
36856;DHT22;22788;51.434;6.786;2023-07-24T13:44:47;20.60;99.90
36856;DHT22;22788;51.434;6.786;2023-07-24T13:47:12;20.70;99.90
36856;DHT22;22788;51.434;6.786;2023-07-24T13:49:38;20.80;99.90
36856;DHT22;22788;51.434;6.786;2023-07-24T13:52:04;20.80;99.90
36856;DHT22;22788;51.434;6.786;2023-07-24T13:54:29;20.90;99.90
36856;DHT22;22788;51.434;6.786;2023-07-24T13:56:56;20.90;99.90
36856;DHT22;22788;51.434;6.786;2023-07-24T13:59:22;21.00;99.90
36856;DHT22;22788;51.434;6.786;2023-07-24T14:01:47;21.00;99.90
36856;DHT22;22788;51.434;6.786;2023-07-24T14:04:13;21.10;99.90
36856;DHT22;22788;51.434;6.786;2023-07-24T14:06:39;21.20;99.90
36856;DHT22;22788;51.434;6.786;2023-07-24T14:09:04;21.10;99.90
36856;DHT22;22788;51.434;6.786;2023-07-24T14:11:30;21.10;99.90
36856;DHT22;22788;51.434;6.786;2023-07-24T14:13:57;21.00;99.90
36856;DHT22;22788;51.434;6.786;2023-07-24T14:16:22;21.00;99.90
36856;DHT22;22788;51.434;6.786;2023-07-24T14:18:48;21.00;99.90
36856;DHT22;22788;51.434;6.786;2023-07-24T14:21:14;20.90;99.90
36856;DHT22;22788;51.434;6.786;2023-07-24T14:23:39;20.90;99.90
36856;DHT22;22788;51.434;6.786;2023-07-24T14:26:05;20.90;99.90
36856;DHT22;22788;51.434;6.786;2023-07-24T14:28:30;20.90;99.90
36856;DHT22;22788;51.434;6.786;2023-07-24T14:30:57;20.80;99.90
36856;DHT22;22788;51.434;6.786;2023-07-24T14:33:23;20.80;99.90
36856;DHT22;22788;51.434;6.786;2023-07-24T14:35:49;20.70;99.90
36856;DHT22;22788;51.434;6.786;2023-07-24T14:38:14;20.70;99.90
36856;DHT22;22788;51.434;6.786;2023-07-24T14:40:40;20.70;99.90
36856;DHT22;22788;51.434;6.786;2023-07-24T14:43:06;20.70;99.90
36856;DHT22;22788;51.434;6.786;2023-07-24T14:45:31;20.80;99.90
36856;DHT22;22788;51.434;6.786;2023-07-24T14:47:58;20.80;99.90
36856;DHT22;22788;51.434;6.786;2023-07-24T14:50:24;20.80;99.90
36856;DHT22;22788;51.434;6.786;2023-07-24T14:52:50;20.80;99.90
36856;DHT22;22788;51.434;6.786;2023-07-24T14:55:15;20.90;99.90
36856;DHT22;22788;51.434;6.786;2023-07-24T14:57:41;20.90;99.90
36856;DHT22;22788;51.434;6.786;2023-07-24T15:00:07;21.00;99.90
36856;DHT22;22788;51.434;6.786;2023-07-24T15:02:33;21.00;99.90
36856;DHT22;22788;51.434;6.786;2023-07-24T15:05:00;21.00;99.90
36856;DHT22;22788;51.434;6.786;2023-07-24T15:07:26;21.00;99.90
36856;DHT22;22788;51.434;6.786;2023-07-24T15:09:51;21.00;99.90
36856;DHT22;22788;51.434;6.786;2023-07-24T15:12:17;21.10;99.90
36856;DHT22;22788;51.434;6.786;2023-07-24T15:14:42;21.10;99.90
36856;DHT22;22788;51.434;6.786;2023-07-24T15:17:08;21.20;99.90
36856;DHT22;22788;51.434;6.786;2023-07-24T15:19:34;21.10;99.90
36856;DHT22;22788;51.434;6.786;2023-07-24T15:22:01;21.00;99.90
36856;DHT22;22788;51.434;6.786;2023-07-24T15:24:26;21.10;99.90